Luceville, Canada
Current Conditions -  °F | °C
As of 12:00 PM on Saturday 25 Oct 2014 (Local Time) from CYYY Reporting Station
Overcast Overcast  
Wind Chill: 39°   Ceiling: 8000
Heat Index: 45°   Visibility: 30mi
Dew Point: 37°   Wind: 10mph
Humidity: 76%   Direction: 50°NE
Pressure: 29.63"   Gusts: NA
Location:  48.52°N, 68.33°W
Report Text: CYYY 251600Z 05009KT 30SM FEW030 SCT060 OVC080 07/03 A2963 RMK SC1SC2AC5 SLP035
Loading
Personal Weather Stations






























Interactive Weather Map
Tropical Storm Tracking
New forecast layout! Learn more

10-Day Weather Forecast

Advertisements
Track Severe Weather on mobile